createdAt,value
2022-11-30T00:00:13.873Z,7.38
2022-11-30T00:00:45.863Z,7.38
2022-11-30T00:01:17.855Z,7.38
2022-11-30T00:01:49.682Z,7.38
2022-11-30T00:02:21.809Z,7.38
2022-11-30T00:02:44.627Z,7.38
2022-11-30T00:03:07.428Z,7.38
2022-11-30T00:03:41.569Z,7.38
2022-11-30T00:04:13.488Z,7.38
2022-11-30T00:04:47.134Z,7.38
2022-11-30T00:05:16.141Z,7.38
2022-11-30T00:05:49.768Z,7.38
2022-11-30T00:06:22.162Z,7.38
2022-11-30T00:06:46.426Z,7.38
2022-11-30T00:07:07.606Z,7.38
2022-11-30T00:07:41.714Z,7.38
2022-11-30T00:08:14.032Z,7.38
2022-11-30T00:08:45.491Z,7.38
2022-11-30T00:09:16.139Z,7.38
2022-11-30T00:09:49.728Z,7.38
2022-11-30T00:10:22.551Z,7.38
2022-11-30T00:10:45.311Z,7.38
2022-11-30T00:11:07.923Z,7.38
2022-11-30T00:11:42.552Z,7.38
2022-11-30T00:12:17.097Z,7.38
2022-11-30T00:12:46.061Z,7.38
2022-11-30T00:13:16.210Z,7.38
2022-11-30T00:13:50.323Z,7.38
2022-11-30T00:14:22.405Z,7.38
2022-11-30T00:14:45.707Z,7.38
2022-11-30T00:15:10.819Z,7.38
2022-11-30T00:15:41.924Z,7.38
2022-11-30T00:16:14.028Z,7.38
2022-11-30T00:16:47.146Z,7.38
2022-11-30T00:17:17.231Z,7.38
2022-11-30T00:17:50.140Z,7.38
2022-11-30T00:18:22.131Z,7.38
2022-11-30T00:18:45.070Z,7.38
2022-11-30T00:19:07.347Z,7.38
2022-11-30T00:19:42.297Z,7.38
2022-11-30T00:20:17.576Z,7.38
2022-11-30T00:20:40.333Z,7.38
2022-11-30T00:21:16.008Z,7.38
2022-11-30T00:21:49.546Z,7.38
2022-11-30T00:22:21.633Z,7.38
2022-11-30T00:22:44.490Z,7.38
2022-11-30T00:23:06.947Z,7.38
2022-11-30T00:23:41.713Z,7.38
2022-11-30T00:24:13.565Z,7.38
2022-11-30T00:24:46.271Z,7.38
2022-11-30T00:25:15.852Z,7.38
2022-11-30T00:25:49.562Z,7.38
2022-11-30T00:26:22.109Z,7.38
2022-11-30T00:26:44.740Z,7.38
2022-11-30T00:27:07.356Z,7.38
2022-11-30T00:27:41.854Z,7.38
2022-11-30T00:28:13.493Z,7.38
2022-11-30T00:28:45.596Z,7.38
2022-11-30T00:29:15.904Z,7.38
2022-11-30T00:29:49.559Z,7.38
2022-11-30T00:30:22.046Z,7.38
2022-11-30T00:30:44.323Z,7.38
2022-11-30T00:31:06.712Z,7.38
2022-11-30T00:31:41.636Z,7.38
2022-11-30T00:32:13.567Z,7.38
2022-11-30T00:32:45.572Z,7.38
2022-11-30T00:33:16.017Z,7.38
2022-11-30T00:33:49.466Z,7.38
2022-11-30T00:34:22.915Z,7.27
2022-11-30T00:34:45.349Z,7.27
2022-11-30T00:35:07.433Z,7.27
2022-11-30T00:35:42.071Z,7.27
2022-11-30T00:36:13.770Z,7.27
2022-11-30T00:36:45.413Z,7.22
2022-11-30T00:37:17.633Z,7.22
2022-11-30T00:37:49.733Z,7.22
2022-11-30T00:38:21.516Z,7.22
2022-11-30T00:38:44.313Z,7.22
2022-11-30T00:39:06.616Z,7.22
2022-11-30T00:39:41.887Z,7.22
2022-11-30T00:40:13.653Z,7.22
2022-11-30T00:40:45.784Z,7.22
2022-11-30T00:41:16.404Z,7.22
2022-11-30T00:41:49.661Z,7.11
2022-11-30T00:42:21.688Z,7.11
2022-11-30T00:42:44.874Z,7.11
2022-11-30T00:43:07.239Z,7.11
2022-11-30T00:43:41.506Z,7.11
2022-11-30T00:44:13.812Z,7.11
2022-11-30T00:44:46.051Z,7.11
2022-11-30T00:45:16.029Z,7.11
2022-11-30T00:45:49.559Z,7.11
2022-11-30T00:46:21.457Z,7.11
2022-11-30T00:46:44.257Z,7.11
2022-11-30T00:47:06.572Z,7.11
2022-11-30T00:47:41.540Z,7.11
2022-11-30T00:48:13.673Z,7.11
2022-11-30T00:48:45.813Z,7.11
2022-11-30T00:49:15.905Z,7.11
2022-11-30T00:49:49.872Z,7.11
2022-11-30T00:50:21.600Z,7.11
2022-11-30T00:50:44.332Z,7.11
2022-11-30T00:51:06.918Z,7.11
2022-11-30T00:51:41.450Z,7.11
2022-11-30T00:52:13.592Z,7.11
2022-11-30T00:52:45.454Z,7.11
2022-11-30T00:53:15.920Z,7.11
2022-11-30T00:53:49.500Z,7.11
2022-11-30T00:54:22.938Z,7.00
2022-11-30T00:54:46.180Z,7.00
2022-11-30T00:55:07.785Z,7.00
2022-11-30T00:55:41.615Z,7.00
2022-11-30T00:56:13.507Z,7.00
2022-11-30T00:56:45.499Z,7.00
2022-11-30T00:57:16.281Z,7.00
2022-11-30T00:57:49.517Z,7.00
2022-11-30T00:58:21.583Z,7.00
2022-11-30T00:58:44.701Z,7.00
2022-11-30T00:59:07.137Z,7.00
2022-11-30T00:59:41.556Z,7.00
2022-11-30T01:00:13.516Z,7.00
2022-11-30T01:00:45.495Z,7.00
2022-11-30T01:01:16.091Z,7.00
2022-11-30T01:01:49.759Z,7.00
2022-11-30T01:02:21.500Z,7.00
2022-11-30T01:02:44.334Z,7.00
2022-11-30T01:03:06.667Z,7.00
2022-11-30T01:03:41.547Z,7.00
2022-11-30T01:04:13.404Z,7.00
2022-11-30T01:04:45.890Z,7.00
2022-11-30T01:05:16.020Z,7.00
2022-11-30T01:05:49.615Z,7.00
2022-11-30T01:06:21.582Z,7.00
2022-11-30T01:06:44.635Z,7.00
2022-11-30T01:07:07.088Z,7.00
2022-11-30T01:07:41.659Z,7.00
2022-11-30T01:08:14.026Z,7.00
2022-11-30T01:08:45.658Z,7.00
2022-11-30T01:09:16.069Z,7.00
2022-11-30T01:09:49.764Z,7.00
2022-11-30T01:10:22.043Z,7.00
2022-11-30T01:10:44.757Z,7.00
2022-11-30T01:11:07.048Z,7.00
2022-11-30T01:11:41.798Z,7.00
2022-11-30T01:12:13.630Z,7.00
2022-11-30T01:12:46.929Z,6.88
2022-11-30T01:13:16.403Z,6.88
2022-11-30T01:13:49.496Z,6.88
2022-11-30T01:14:21.674Z,6.88
2022-11-30T01:14:45.237Z,6.88
2022-11-30T01:15:07.127Z,6.88
2022-11-30T01:15:42.114Z,6.88
2022-11-30T01:16:13.509Z,6.88
2022-11-30T01:16:45.676Z,6.88
2022-11-30T01:17:15.881Z,6.88
2022-11-30T01:17:49.572Z,6.88
2022-11-30T01:18:21.678Z,6.77
2022-11-30T01:18:44.459Z,6.77
2022-11-30T01:19:06.745Z,6.77
2022-11-30T01:19:41.762Z,6.77
2022-11-30T01:20:14.038Z,6.77
2022-11-30T01:20:45.547Z,6.77
2022-11-30T01:21:16.019Z,6.77
2022-11-30T01:21:49.605Z,6.77
2022-11-30T01:22:21.604Z,6.77
2022-11-30T01:22:44.479Z,6.77
2022-11-30T01:23:06.929Z,6.77
2022-11-30T01:23:41.705Z,6.77
2022-11-30T01:24:13.631Z,6.77
2022-11-30T01:24:45.808Z,6.77
2022-11-30T01:25:16.085Z,6.77
2022-11-30T01:25:49.542Z,6.77
2022-11-30T01:26:21.675Z,6.77
2022-11-30T01:26:44.844Z,6.77
2022-11-30T01:27:07.280Z,6.77
2022-11-30T01:27:41.402Z,6.77
2022-11-30T01:28:13.552Z,6.77
2022-11-30T01:28:45.526Z,6.72
2022-11-30T01:29:15.972Z,6.72
2022-11-30T01:29:49.527Z,6.72
2022-11-30T01:30:21.687Z,6.72
2022-11-30T01:30:45.196Z,6.72
2022-11-30T01:31:07.498Z,6.72
2022-11-30T01:31:41.564Z,6.72
2022-11-30T01:32:13.422Z,6.72
2022-11-30T01:32:45.569Z,6.72
2022-11-30T01:33:16.091Z,6.72
2022-11-30T01:33:49.552Z,6.72
2022-11-30T01:34:21.486Z,6.72
2022-11-30T01:34:44.540Z,6.72
2022-11-30T01:35:06.828Z,6.72
2022-11-30T01:35:41.577Z,6.72
2022-11-30T01:36:13.453Z,6.72
2022-11-30T01:36:47.040Z,6.72
2022-11-30T01:37:15.903Z,6.72
2022-11-30T01:37:49.588Z,6.72
2022-11-30T01:38:21.416Z,6.72
2022-11-30T01:38:44.536Z,6.72
2022-11-30T01:39:07.460Z,6.72
2022-11-30T01:39:41.497Z,6.72
2022-11-30T01:40:15.931Z,6.72
2022-11-30T01:40:45.467Z,6.72
2022-11-30T01:41:17.638Z,6.72
2022-11-30T01:41:49.489Z,6.72
2022-11-30T01:42:21.559Z,6.72
2022-11-30T01:42:44.660Z,6.72
2022-11-30T01:43:07.144Z,6.72
2022-11-30T01:43:41.590Z,6.72
2022-11-30T01:44:18.243Z,6.72
2022-11-30T01:44:45.788Z,6.61
2022-11-30T01:45:16.216Z,6.61
2022-11-30T01:45:49.592Z,6.61
2022-11-30T01:46:21.558Z,6.61
2022-11-30T01:46:44.320Z,6.61
2022-11-30T01:47:06.618Z,6.61
2022-11-30T01:47:41.646Z,6.61
2022-11-30T01:48:13.503Z,6.61
2022-11-30T01:48:46.008Z,6.61
2022-11-30T01:49:19.409Z,6.61
2022-11-30T01:49:49.577Z,6.61
2022-11-30T01:50:21.547Z,6.61
2022-11-30T01:50:44.257Z,6.50
2022-11-30T01:51:06.464Z,6.50
2022-11-30T01:51:41.602Z,6.50
2022-11-30T01:52:13.739Z,6.50
2022-11-30T01:52:45.426Z,6.50
2022-11-30T01:53:15.972Z,6.50
2022-11-30T01:53:49.490Z,6.50
2022-11-30T01:54:21.965Z,6.50
2022-11-30T01:54:44.676Z,6.50
2022-11-30T01:55:07.058Z,6.50
2022-11-30T01:55:41.515Z,6.50
2022-11-30T01:56:13.482Z,6.50
2022-11-30T01:56:45.449Z,6.50
2022-11-30T01:57:16.086Z,6.50
2022-11-30T01:57:49.699Z,6.50
2022-11-30T01:58:21.508Z,6.50
2022-11-30T01:58:45.621Z,6.50
2022-11-30T01:59:06.540Z,6.50
2022-11-30T01:59:41.528Z,6.50
2022-11-30T02:00:13.597Z,6.50
2022-11-30T02:00:45.535Z,6.50
2022-11-30T02:01:16.657Z,6.50
2022-11-30T02:01:49.471Z,6.50
2022-11-30T02:02:21.632Z,6.50
2022-11-30T02:02:44.267Z,6.50
2022-11-30T02:03:06.572Z,6.50
2022-11-30T02:03:41.684Z,6.38
2022-11-30T02:04:13.492Z,6.38
2022-11-30T02:04:45.924Z,6.38
2022-11-30T02:05:16.046Z,6.38
2022-11-30T02:05:51.068Z,6.38
2022-11-30T02:06:21.545Z,6.38
2022-11-30T02:06:44.615Z,6.38
2022-11-30T02:07:07.003Z,6.38
2022-11-30T02:07:41.752Z,6.38
2022-11-30T02:08:13.580Z,6.38
2022-11-30T02:08:45.555Z,6.38
2022-11-30T02:09:16.152Z,6.38
2022-11-30T02:09:49.730Z,6.38
2022-11-30T02:10:21.665Z,6.38
2022-11-30T02:10:44.405Z,6.38
2022-11-30T02:11:06.866Z,6.27
2022-11-30T02:11:41.636Z,6.27
2022-11-30T02:12:13.591Z,6.27
2022-11-30T02:12:45.545Z,6.27
2022-11-30T02:13:16.455Z,6.27
2022-11-30T02:13:49.486Z,6.22
2022-11-30T02:14:21.605Z,6.22
2022-11-30T02:14:46.161Z,6.22
2022-11-30T02:15:06.957Z,6.22
2022-11-30T02:15:41.551Z,6.22
2022-11-30T02:16:13.626Z,6.22
2022-11-30T02:16:45.443Z,6.22
2022-11-30T02:17:16.073Z,6.22
2022-11-30T02:17:49.539Z,6.22
2022-11-30T02:18:21.927Z,6.22
2022-11-30T02:18:45.617Z,6.22
2022-11-30T02:19:08.093Z,6.22
2022-11-30T02:19:41.695Z,6.22
2022-11-30T02:20:13.576Z,6.11
2022-11-30T02:20:45.479Z,6.11
2022-11-30T02:21:15.948Z,6.11
2022-11-30T02:21:50.915Z,6.11
2022-11-30T02:22:22.993Z,6.11
2022-11-30T02:22:45.653Z,6.11
2022-11-30T02:23:07.987Z,6.11
2022-11-30T02:23:43.035Z,6.11
2022-11-30T02:24:13.533Z,6.11
2022-11-30T02:24:46.001Z,6.11
2022-11-30T02:25:16.039Z,6.11
2022-11-30T02:25:49.455Z,6.00
2022-11-30T02:26:21.584Z,6.00
2022-11-30T02:26:45.001Z,6.00
2022-11-30T02:27:07.354Z,6.00
2022-11-30T02:27:41.524Z,6.00
2022-11-30T02:28:13.433Z,6.00
2022-11-30T02:28:45.429Z,6.00
2022-11-30T02:29:16.009Z,6.00
2022-11-30T02:29:49.387Z,6.00
2022-11-30T02:30:21.913Z,6.00
2022-11-30T02:30:44.528Z,6.00
2022-11-30T02:31:06.815Z,6.00
2022-11-30T02:31:41.467Z,6.00
2022-11-30T02:32:13.478Z,6.00
2022-11-30T02:32:45.730Z,6.00
2022-11-30T02:33:15.928Z,5.88
2022-11-30T02:33:49.754Z,5.88
2022-11-30T02:34:21.483Z,5.88
2022-11-30T02:34:44.277Z,5.88
2022-11-30T02:35:06.504Z,5.88
2022-11-30T02:35:41.676Z,5.88
2022-11-30T02:36:13.436Z,5.88
2022-11-30T02:36:45.521Z,5.88
2022-11-30T02:37:15.948Z,5.88
2022-11-30T02:37:49.931Z,5.88
2022-11-30T02:38:21.520Z,5.88
2022-11-30T02:38:44.219Z,5.88
2022-11-30T02:39:06.628Z,5.88
2022-11-30T02:39:41.512Z,5.88
2022-11-30T02:40:14.998Z,5.88
2022-11-30T02:40:49.157Z,5.88
2022-11-30T02:41:16.033Z,5.88
2022-11-30T02:41:49.638Z,5.88
2022-11-30T02:42:21.500Z,5.88
2022-11-30T02:42:45.090Z,5.88
2022-11-30T02:43:07.400Z,5.88
2022-11-30T02:43:41.581Z,5.88
2022-11-30T02:44:14.021Z,5.88
2022-11-30T02:44:45.891Z,5.88
2022-11-30T02:45:17.571Z,5.88
2022-11-30T02:45:49.367Z,5.88
2022-11-30T02:46:21.629Z,5.88
2022-11-30T02:46:44.296Z,5.88
2022-11-30T02:47:06.645Z,5.88
2022-11-30T02:47:41.393Z,5.88
2022-11-30T02:48:13.513Z,5.88
2022-11-30T02:48:45.732Z,5.88
2022-11-30T02:49:18.450Z,5.77
2022-11-30T02:49:49.436Z,5.77
2022-11-30T02:50:21.426Z,5.77
2022-11-30T02:50:44.262Z,5.77
2022-11-30T02:51:06.543Z,5.77
2022-11-30T02:51:41.588Z,5.77
2022-11-30T02:52:13.474Z,5.77
2022-11-30T02:52:45.546Z,5.77
2022-11-30T02:53:15.945Z,5.77
2022-11-30T02:53:49.437Z,5.77
2022-11-30T02:54:21.381Z,5.77
2022-11-30T02:54:44.544Z,5.77
2022-11-30T02:55:06.509Z,5.77
2022-11-30T02:55:41.461Z,5.77
2022-11-30T02:56:13.546Z,5.77
2022-11-30T02:56:45.585Z,5.77
2022-11-30T02:57:15.988Z,5.77
2022-11-30T02:57:49.510Z,5.77
2022-11-30T02:58:21.537Z,5.88
2022-11-30T02:58:44.350Z,5.77
2022-11-30T02:59:06.640Z,5.77
2022-11-30T02:59:41.990Z,5.77
2022-11-30T03:00:20.215Z,5.77
2022-11-30T03:00:49.899Z,5.77
2022-11-30T03:01:16.118Z,5.77
2022-11-30T03:01:52.119Z,5.77
2022-11-30T03:02:15.673Z,5.77
2022-11-30T03:02:48.735Z,5.77
2022-11-30T03:03:25.502Z,5.77
2022-11-30T03:03:48.360Z,5.77
2022-11-30T03:04:10.709Z,5.77
2022-11-30T03:04:45.622Z,5.77
2022-11-30T03:05:15.952Z,5.77
2022-11-30T03:05:49.504Z,5.77
2022-11-30T03:06:16.832Z,5.77
2022-11-30T03:06:48.347Z,5.77
2022-11-30T03:07:25.767Z,5.77
2022-11-30T03:07:48.332Z,5.77
2022-11-30T03:08:10.718Z,5.77
2022-11-30T03:08:45.664Z,5.77
2022-11-30T03:09:16.459Z,5.77
2022-11-30T03:09:49.646Z,5.77
2022-11-30T03:10:22.193Z,5.77
2022-11-30T03:10:44.704Z,5.77
2022-11-30T03:11:07.444Z,5.77
2022-11-30T03:11:42.028Z,5.77
2022-11-30T03:12:14.401Z,5.77
2022-11-30T03:12:51.292Z,5.77
2022-11-30T03:13:17.780Z,5.77
2022-11-30T03:13:49.883Z,5.77
2022-11-30T03:14:24.419Z,5.77
2022-11-30T03:14:47.308Z,5.77
2022-11-30T03:15:07.830Z,5.77
2022-11-30T03:15:41.614Z,5.77
2022-11-30T03:16:14.374Z,5.77
2022-11-30T03:16:45.604Z,5.77
2022-11-30T03:17:17.138Z,5.77
2022-11-30T03:17:49.834Z,5.77
2022-11-30T03:18:22.026Z,5.77
2022-11-30T03:18:44.498Z,5.77
2022-11-30T03:19:07.021Z,5.77
2022-11-30T03:19:42.774Z,5.77
2022-11-30T03:20:15.882Z,5.77
2022-11-30T03:20:47.184Z,5.77
2022-11-30T03:21:17.579Z,5.77
2022-11-30T03:21:49.719Z,5.77
2022-11-30T03:22:21.560Z,5.77
2022-11-30T03:22:44.336Z,5.77
2022-11-30T03:23:06.713Z,5.77
2022-11-30T03:23:42.054Z,5.77
2022-11-30T03:24:14.021Z,5.77
2022-11-30T03:24:46.346Z,5.77
2022-11-30T03:25:19.964Z,5.77
2022-11-30T03:25:49.839Z,5.77
2022-11-30T03:26:21.546Z,5.77
2022-11-30T03:26:44.270Z,5.77
2022-11-30T03:27:06.808Z,5.77
2022-11-30T03:27:42.033Z,5.77
2022-11-30T03:28:13.527Z,5.77
2022-11-30T03:28:48.043Z,5.77
2022-11-30T03:29:15.964Z,5.77
2022-11-30T03:29:50.708Z,5.77
2022-11-30T03:30:21.600Z,5.77
2022-11-30T03:30:44.264Z,5.77
2022-11-30T03:31:07.112Z,5.77
2022-11-30T03:31:41.562Z,5.77
2022-11-30T03:32:13.505Z,5.77
2022-11-30T03:32:45.904Z,5.77
2022-11-30T03:33:16.603Z,5.77
2022-11-30T03:33:49.476Z,5.77
2022-11-30T03:34:22.003Z,5.77
2022-11-30T03:34:45.124Z,5.77
2022-11-30T03:35:07.026Z,5.77
2022-11-30T03:35:42.593Z,5.77
2022-11-30T03:36:13.491Z,5.77
2022-11-30T03:36:45.477Z,5.77
2022-11-30T03:37:16.061Z,5.77
2022-11-30T03:37:50.342Z,5.77
2022-11-30T03:38:21.522Z,5.77
2022-11-30T03:38:44.197Z,5.77
2022-11-30T03:39:06.481Z,5.77
2022-11-30T03:39:42.036Z,5.77
2022-11-30T03:40:13.795Z,5.77
2022-11-30T03:40:46.868Z,5.77
2022-11-30T03:41:17.609Z,5.77
2022-11-30T03:41:50.257Z,5.77
2022-11-30T03:42:22.809Z,5.77
2022-11-30T03:42:45.539Z,5.72
2022-11-30T03:43:08.397Z,5.72
2022-11-30T03:43:43.386Z,5.72
2022-11-30T03:44:13.709Z,5.72
2022-11-30T03:44:46.135Z,5.72
2022-11-30T03:45:16.143Z,5.72
2022-11-30T03:45:50.622Z,5.72
2022-11-30T03:46:22.214Z,5.72
2022-11-30T03:46:44.844Z,5.72
2022-11-30T03:47:08.749Z,5.72
2022-11-30T03:47:41.472Z,5.72
2022-11-30T03:48:13.714Z,5.72
2022-11-30T03:48:45.588Z,5.72
2022-11-30T03:49:16.513Z,5.72
2022-11-30T03:49:50.884Z,5.72
2022-11-30T03:50:22.411Z,5.72
2022-11-30T03:50:44.981Z,5.72
2022-11-30T03:51:07.618Z,5.72
2022-11-30T03:51:41.501Z,5.72
2022-11-30T03:52:13.545Z,5.72
2022-11-30T03:52:45.550Z,5.72
2022-11-30T03:53:16.123Z,5.72
2022-11-30T03:53:50.074Z,5.72
2022-11-30T03:54:21.847Z,5.72
2022-11-30T03:54:44.906Z,5.72
2022-11-30T03:55:07.085Z,5.72
2022-11-30T03:55:41.416Z,5.72
2022-11-30T03:56:13.555Z,5.72
2022-11-30T03:56:45.799Z,5.72
2022-11-30T03:57:16.144Z,5.72
2022-11-30T03:57:50.182Z,5.72
2022-11-30T03:58:21.460Z,5.72
2022-11-30T03:58:44.284Z,5.72
2022-11-30T03:59:06.581Z,5.72
2022-11-30T03:59:43.802Z,5.72
2022-11-30T04:00:13.544Z,5.72
2022-11-30T04:00:45.586Z,5.72
2022-11-30T04:01:17.739Z,5.61
2022-11-30T04:01:50.394Z,5.61
2022-11-30T04:02:21.617Z,5.61
2022-11-30T04:02:45.077Z,5.61
2022-11-30T04:03:07.682Z,5.61
2022-11-30T04:03:41.414Z,5.61
2022-11-30T04:04:13.854Z,5.61
2022-11-30T04:04:45.856Z,5.61
2022-11-30T04:05:16.077Z,5.61
2022-11-30T04:05:49.384Z,5.61
2022-11-30T04:06:21.974Z,5.61
2022-11-30T04:06:44.592Z,5.61
2022-11-30T04:07:07.589Z,5.61
2022-11-30T04:07:41.650Z,5.61
2022-11-30T04:08:13.706Z,5.61
2022-11-30T04:08:45.867Z,5.61
2022-11-30T04:09:16.698Z,5.61
2022-11-30T04:09:50.239Z,5.61
2022-11-30T04:10:21.955Z,5.61
2022-11-30T04:10:44.279Z,5.61
2022-11-30T04:11:06.894Z,5.61
2022-11-30T04:11:43.919Z,5.61
2022-11-30T04:12:13.824Z,5.61
2022-11-30T04:12:45.546Z,5.61
2022-11-30T04:13:16.785Z,5.61
2022-11-30T04:13:50.031Z,5.61
2022-11-30T04:14:25.225Z,5.61
2022-11-30T04:14:47.090Z,5.61
2022-11-30T04:15:08.165Z,5.61
2022-11-30T04:15:41.830Z,5.61
2022-11-30T04:16:14.994Z,5.61
2022-11-30T04:16:46.061Z,5.61
2022-11-30T04:17:16.423Z,5.61
2022-11-30T04:17:50.520Z,5.61
2022-11-30T04:18:21.772Z,5.61
2022-11-30T04:18:44.385Z,5.61
2022-11-30T04:19:07.603Z,5.61
2022-11-30T04:19:41.649Z,5.61
2022-11-30T04:20:14.558Z,5.61
2022-11-30T04:20:45.890Z,5.61
2022-11-30T04:21:16.797Z,5.72
2022-11-30T04:21:50.280Z,5.72
2022-11-30T04:22:21.851Z,5.72
2022-11-30T04:22:44.596Z,5.72
2022-11-30T04:23:06.999Z,5.72
2022-11-30T04:23:42.510Z,5.72
2022-11-30T04:24:13.585Z,5.72
2022-11-30T04:24:46.532Z,5.72
2022-11-30T04:25:17.017Z,5.72
2022-11-30T04:25:49.578Z,5.72
2022-11-30T04:26:21.493Z,5.72
2022-11-30T04:26:45.813Z,5.72
2022-11-30T04:27:07.850Z,5.72
2022-11-30T04:27:41.663Z,5.72
2022-11-30T04:28:13.828Z,5.72
2022-11-30T04:28:45.740Z,5.72
2022-11-30T04:29:16.147Z,5.72
2022-11-30T04:29:52.158Z,5.72
2022-11-30T04:30:22.468Z,5.72
2022-11-30T04:30:44.863Z,5.72
2022-11-30T04:31:07.431Z,5.72
2022-11-30T04:31:41.816Z,5.72
2022-11-30T04:32:13.447Z,5.72
2022-11-30T04:32:45.470Z,5.72
2022-11-30T04:33:16.049Z,5.72
2022-11-30T04:33:49.658Z,5.72
2022-11-30T04:34:21.452Z,5.72
2022-11-30T04:34:44.314Z,5.72
2022-11-30T04:35:06.688Z,5.72
2022-11-30T04:35:41.388Z,5.72
2022-11-30T04:36:14.329Z,5.72
2022-11-30T04:36:45.718Z,5.72
2022-11-30T04:37:16.072Z,5.72
2022-11-30T04:37:49.495Z,5.72
2022-11-30T04:38:21.511Z,5.72
2022-11-30T04:38:44.285Z,5.72
2022-11-30T04:39:07.198Z,5.72
2022-11-30T04:39:41.695Z,5.72
2022-11-30T04:40:13.431Z,5.72
2022-11-30T04:40:45.881Z,5.72
2022-11-30T04:41:16.823Z,5.72
2022-11-30T04:41:50.419Z,5.72
2022-11-30T04:42:21.495Z,5.72
2022-11-30T04:42:44.192Z,5.72
2022-11-30T04:43:07.497Z,5.77
2022-11-30T04:43:42.026Z,5.77
2022-11-30T04:44:13.597Z,5.77
2022-11-30T04:44:46.469Z,5.77
2022-11-30T04:45:17.774Z,5.77
2022-11-30T04:45:49.705Z,5.77
2022-11-30T04:46:21.476Z,5.77
2022-11-30T04:46:44.272Z,5.77
2022-11-30T04:47:06.578Z,5.77
2022-11-30T04:47:42.161Z,5.77
2022-11-30T04:48:14.072Z,5.77
2022-11-30T04:48:48.071Z,5.77
2022-11-30T04:49:16.037Z,5.77
2022-11-30T04:49:49.687Z,5.77
2022-11-30T04:50:21.994Z,5.77
2022-11-30T04:50:44.734Z,5.77
2022-11-30T04:51:07.203Z,5.77
2022-11-30T04:51:42.125Z,5.77
2022-11-30T04:52:15.070Z,5.77
2022-11-30T04:52:45.333Z,5.77
2022-11-30T04:53:16.056Z,5.77
2022-11-30T04:53:49.443Z,5.77
2022-11-30T04:54:22.159Z,5.77
2022-11-30T04:54:45.114Z,5.77
2022-11-30T04:55:07.060Z,5.77
2022-11-30T04:55:41.602Z,5.77
2022-11-30T04:56:13.587Z,5.77
2022-11-30T04:56:45.607Z,5.77
2022-11-30T04:57:16.337Z,5.77
2022-11-30T04:57:49.888Z,5.77
2022-11-30T04:58:21.390Z,5.77
2022-11-30T04:58:44.068Z,5.77
2022-11-30T04:59:06.570Z,5.77
2022-11-30T04:59:41.464Z,5.77
2022-11-30T05:00:13.543Z,5.77
2022-11-30T05:00:45.416Z,5.77
2022-11-30T05:01:16.096Z,5.77
2022-11-30T05:01:49.375Z,5.77
2022-11-30T05:02:21.566Z,5.77
2022-11-30T05:02:50.577Z,5.77
2022-11-30T05:03:10.944Z,5.77
2022-11-30T05:03:41.719Z,5.77
2022-11-30T05:04:13.646Z,5.77
2022-11-30T05:04:46.002Z,5.77
2022-11-30T05:05:16.333Z,5.77
2022-11-30T05:05:50.970Z,5.77
2022-11-30T05:06:21.509Z,5.77
2022-11-30T05:06:44.518Z,5.77
2022-11-30T05:07:07.420Z,5.77
2022-11-30T05:07:44.164Z,5.77
2022-11-30T05:08:14.042Z,5.77
2022-11-30T05:08:45.716Z,5.77
2022-11-30T05:09:16.624Z,5.77
2022-11-30T05:09:50.812Z,5.77
2022-11-30T05:10:25.191Z,5.88
2022-11-30T05:10:52.857Z,5.88
2022-11-30T05:11:26.330Z,5.88
2022-11-30T05:11:48.956Z,5.88
2022-11-30T05:12:11.416Z,5.77
2022-11-30T05:12:45.659Z,5.88
2022-11-30T05:13:16.642Z,5.88
2022-11-30T05:13:49.938Z,5.88
2022-11-30T05:14:22.532Z,5.88
2022-11-30T05:14:45.292Z,5.88
2022-11-30T05:15:07.635Z,5.88
2022-11-30T05:15:43.505Z,5.88
2022-11-30T05:16:14.397Z,5.88
2022-11-30T05:16:45.781Z,5.88
2022-11-30T05:17:17.865Z,5.88
2022-11-30T05:17:49.866Z,5.88
2022-11-30T05:18:24.194Z,5.88
2022-11-30T05:18:45.262Z,5.88
2022-11-30T05:19:09.469Z,5.88
2022-11-30T05:19:42.074Z,5.88
2022-11-30T05:20:14.836Z,5.88
2022-11-30T05:20:46.273Z,5.88
2022-11-30T05:21:16.384Z,5.88
2022-11-30T05:21:49.903Z,5.88
2022-11-30T05:22:21.746Z,5.88
2022-11-30T05:22:44.257Z,5.88
2022-11-30T05:23:06.868Z,5.88
2022-11-30T05:23:41.733Z,5.88
2022-11-30T05:24:14.803Z,5.88
2022-11-30T05:24:45.867Z,5.88
2022-11-30T05:25:16.819Z,5.88
2022-11-30T05:25:49.551Z,5.88
2022-11-30T05:26:22.264Z,5.88
2022-11-30T05:26:44.831Z,5.88
2022-11-30T05:27:13.401Z,5.88
2022-11-30T05:27:41.688Z,5.88
2022-11-30T05:28:13.661Z,5.88
2022-11-30T05:28:45.589Z,5.88
2022-11-30T05:29:16.225Z,5.88
2022-11-30T05:29:50.044Z,5.88
2022-11-30T05:30:21.746Z,5.88
2022-11-30T05:30:44.226Z,5.88
2022-11-30T05:31:07.386Z,5.88
2022-11-30T05:31:43.370Z,5.88
2022-11-30T05:32:14.003Z,5.88
2022-11-30T05:32:45.858Z,5.88
2022-11-30T05:33:18.204Z,5.88
2022-11-30T05:33:49.605Z,5.88
2022-11-30T05:34:21.582Z,5.88
2022-11-30T05:34:50.654Z,5.88
2022-11-30T05:35:06.791Z,5.88
2022-11-30T05:35:42.140Z,5.88
2022-11-30T05:36:13.718Z,5.88
2022-11-30T05:36:49.096Z,5.88
2022-11-30T05:37:16.775Z,5.88
2022-11-30T05:37:51.237Z,5.88
2022-11-30T05:38:21.963Z,5.88
2022-11-30T05:38:44.604Z,5.88
2022-11-30T05:39:08.638Z,5.88
2022-11-30T05:39:41.569Z,5.88
2022-11-30T05:40:14.737Z,5.88
2022-11-30T05:40:46.142Z,5.88
2022-11-30T05:41:16.647Z,5.88
2022-11-30T05:41:49.705Z,5.88
2022-11-30T05:42:22.022Z,5.88
2022-11-30T05:42:44.687Z,5.88
2022-11-30T05:43:06.958Z,5.88
2022-11-30T05:43:42.247Z,5.88
2022-11-30T05:44:17.311Z,5.88
2022-11-30T05:44:49.766Z,5.88
2022-11-30T05:45:12.134Z,5.88
2022-11-30T05:45:50.087Z,5.88
2022-11-30T05:46:21.346Z,5.88
2022-11-30T05:46:44.317Z,5.88
2022-11-30T05:47:07.013Z,5.88
2022-11-30T05:47:41.431Z,5.88
2022-11-30T05:48:16.866Z,5.88
2022-11-30T05:48:45.515Z,5.88
2022-11-30T05:49:16.327Z,5.88
2022-11-30T05:49:49.613Z,5.88
2022-11-30T05:50:21.356Z,5.88
2022-11-30T05:50:45.889Z,5.88
2022-11-30T05:51:08.071Z,5.88
2022-11-30T05:51:41.481Z,5.88
2022-11-30T05:52:13.733Z,5.88
2022-11-30T05:52:45.447Z,5.88
2022-11-30T05:53:15.989Z,5.88
2022-11-30T05:53:49.819Z,5.88
2022-11-30T05:54:21.315Z,5.88
2022-11-30T05:54:44.373Z,5.88
2022-11-30T05:55:06.507Z,5.88
2022-11-30T05:55:43.947Z,5.88
2022-11-30T05:56:13.433Z,5.88
2022-11-30T05:56:47.966Z,5.88
2022-11-30T05:57:16.055Z,5.88
2022-11-30T05:57:51.999Z,5.88
2022-11-30T05:58:21.703Z,5.88
2022-11-30T05:58:44.832Z,5.88
2022-11-30T05:59:07.098Z,5.88
2022-11-30T05:59:41.480Z,5.88
2022-11-30T06:00:13.592Z,5.88
2022-11-30T06:00:45.356Z,5.88
2022-11-30T06:01:16.069Z,5.88
2022-11-30T06:01:51.132Z,5.88
2022-11-30T06:02:27.793Z,5.88
2022-11-30T06:02:44.361Z,5.88
2022-11-30T06:03:08.209Z,5.88
2022-11-30T06:03:41.500Z,5.88
2022-11-30T06:04:13.536Z,5.88
2022-11-30T06:04:46.239Z,5.88
2022-11-30T06:05:16.211Z,5.88
2022-11-30T06:05:49.509Z,5.88
2022-11-30T06:06:21.444Z,5.88
2022-11-30T06:06:45.311Z,5.88
2022-11-30T06:07:07.163Z,5.88
2022-11-30T06:07:41.578Z,5.88
2022-11-30T06:08:17.077Z,5.88
2022-11-30T06:08:45.397Z,5.88
2022-11-30T06:09:16.041Z,5.88
2022-11-30T06:09:49.458Z,5.88
2022-11-30T06:10:21.581Z,5.88
2022-11-30T06:10:44.118Z,5.88
2022-11-30T06:11:06.539Z,5.88
2022-11-30T06:11:41.345Z,5.88
2022-11-30T06:12:13.449Z,5.88
2022-11-30T06:12:46.928Z,5.88
2022-11-30T06:13:16.296Z,5.88
2022-11-30T06:13:49.504Z,5.88
2022-11-30T06:14:21.498Z,5.88
2022-11-30T06:14:44.649Z,5.88
2022-11-30T06:15:06.971Z,5.88
2022-11-30T06:15:41.420Z,5.88
2022-11-30T06:16:14.995Z,5.88
2022-11-30T06:16:45.499Z,5.88
2022-11-30T06:17:16.033Z,5.88
2022-11-30T06:17:49.500Z,5.88
2022-11-30T06:18:21.745Z,5.88
2022-11-30T06:18:44.527Z,5.88
2022-11-30T06:19:06.862Z,5.88
2022-11-30T06:19:41.543Z,5.88
2022-11-30T06:20:13.640Z,5.88
2022-11-30T06:20:45.426Z,5.88
2022-11-30T06:21:21.015Z,5.88
2022-11-30T06:21:49.920Z,5.88
2022-11-30T06:22:21.481Z,5.88
2022-11-30T06:22:43.955Z,5.88
2022-11-30T06:23:06.511Z,5.88
2022-11-30T06:23:43.877Z,5.88
2022-11-30T06:24:13.366Z,5.88
2022-11-30T06:24:45.976Z,5.88
2022-11-30T06:25:16.012Z,5.88
2022-11-30T06:25:50.926Z,5.88
2022-11-30T06:26:15.670Z,5.88
2022-11-30T06:26:47.575Z,5.88
2022-11-30T06:27:25.395Z,5.88
2022-11-30T06:27:48.050Z,5.88
2022-11-30T06:28:10.427Z,5.88
2022-11-30T06:28:48.151Z,5.88
2022-11-30T06:29:16.061Z,5.88
2022-11-30T06:29:49.680Z,5.88
2022-11-30T06:30:21.600Z,5.88
2022-11-30T06:30:44.589Z,5.88
2022-11-30T06:31:06.807Z,5.88
2022-11-30T06:31:42.009Z,5.88
2022-11-30T06:32:13.451Z,5.88
2022-11-30T06:32:45.320Z,5.88
2022-11-30T06:33:16.001Z,5.88
2022-11-30T06:33:49.422Z,5.88
2022-11-30T06:34:21.451Z,6.00
2022-11-30T06:34:44.621Z,6.00
2022-11-30T06:35:07.103Z,6.00
2022-11-30T06:35:41.288Z,6.00
2022-11-30T06:36:13.454Z,6.00
2022-11-30T06:36:45.426Z,6.00
2022-11-30T06:37:15.994Z,6.00
2022-11-30T06:37:49.774Z,6.00
2022-11-30T06:38:24.844Z,6.00
2022-11-30T06:38:44.683Z,6.00
2022-11-30T06:39:07.108Z,6.00